Time,TemperatureF,DewpointF,PressureIn,WindDirection,WindDirectionDegrees,WindSpeedMPH,WindSpeedGustMPH,Humidity,HourlyPrecipIn,Conditions,Clouds,dailyrainin,SolarRadiationWatts/m^2,SoftwareType,DateUTC
2013-04-09 00:01:00,37.0,24.0,30.27,SE,137,0.0,0.0,59,0.00,,,0.00,0,WeatherHawk,2013-04-09 07:01:00,
2013-04-09 00:06:00,36.1,23.6,30.28,ESE,122,0.0,0.0,60,0.00,,,0.00,1,WeatherHawk,2013-04-09 07:06:00,
2013-04-09 00:11:00,34.4,22.7,30.28,SSE,166,0.0,0.0,62,0.00,,,0.00,0,WeatherHawk,2013-04-09 07:11:00,
2013-04-09 00:16:00,35.6,25.8,30.28,SE,136,0.0,-999.0,67,0.00,,,0.00,0,WeatherHawk,2013-04-09 07:16:00,
2013-04-09 00:22:00,36.7,25.7,30.28,ESE,122,1.0,0.0,64,0.00,,,0.00,0,WeatherHawk,2013-04-09 07:22:00,
2013-04-09 00:27:00,35.7,24.0,30.28,NNE,30,3.0,0.0,62,0.00,,,0.00,1,WeatherHawk,2013-04-09 07:27:00,
2013-04-09 00:32:00,34.6,24.7,30.28,NNE,28,0.0,0.0,67,0.00,,,0.00,1,WeatherHawk,2013-04-09 07:32:00,
2013-04-09 00:37:00,34.7,25.6,30.28,ESE,118,1.0,0.0,69,0.00,,,0.00,0,WeatherHawk,2013-04-09 07:37:00,
2013-04-09 00:42:00,35.0,24.8,30.29,ESE,114,5.0,0.0,66,0.00,,,0.00,0,WeatherHawk,2013-04-09 07:42:00,
2013-04-09 00:48:00,34.8,24.6,30.29,ESE,123,0.0,0.0,66,0.00,,,0.00,0,WeatherHawk,2013-04-09 07:48:00,
2013-04-09 00:53:00,36.5,27.3,30.29,ENE,57,0.0,0.0,69,0.00,,,0.00,0,WeatherHawk,2013-04-09 07:53:00,
2013-04-09 00:58:00,34.9,25.0,30.29,ENE,71,0.0,0.0,67,0.00,,,0.00,0,WeatherHawk,2013-04-09 07:58:00,
2013-04-09 01:03:00,33.9,24.5,30.29,ENE,71,0.0,0.0,68,0.00,,,0.00,1,WeatherHawk,2013-04-09 08:03:00,
2013-04-09 01:08:00,34.1,25.4,30.29,ENE,63,0.0,0.0,70,0.00,,,0.00,0,WeatherHawk,2013-04-09 08:08:00,
2013-04-09 01:14:00,33.8,25.1,30.29,NNE,27,0.0,0.0,70,0.00,,,0.00,0,WeatherHawk,2013-04-09 08:14:00,
2013-04-09 01:19:00,33.6,25.2,30.30,NNE,30,0.0,0.0,71,0.00,,,0.00,1,WeatherHawk,2013-04-09 08:19:00,
2013-04-09 01:24:00,33.8,26.1,30.30,NNE,24,0.0,0.0,73,0.00,,,0.00,0,WeatherHawk,2013-04-09 08:24:00,
2013-04-09 01:29:00,34.0,26.2,30.30,NNE,31,2.0,0.0,73,0.00,,,0.00,0,WeatherHawk,2013-04-09 08:29:00,
2013-04-09 01:34:00,34.1,26.4,30.29,NE,38,0.0,0.0,73,0.00,,,0.00,0,WeatherHawk,2013-04-09 08:34:00,
2013-04-09 01:39:00,34.7,26.0,30.30,NE,38,0.0,0.0,70,0.00,,,0.00,1,WeatherHawk,2013-04-09 08:39:00,
2013-04-09 01:44:00,33.8,25.7,30.30,NE,38,0.0,0.0,72,0.00,,,0.00,0,WeatherHawk,2013-04-09 08:44:00,
2013-04-09 01:50:00,32.9,24.6,30.30,ENE,68,0.0,0.0,71,0.00,,,0.00,0,WeatherHawk,2013-04-09 08:50:00,
2013-04-09 01:55:00,33.3,27.2,30.30,NNE,32,0.0,0.0,78,0.00,,,0.00,0,WeatherHawk,2013-04-09 08:55:00,
2013-04-09 02:00:00,33.5,27.7,30.30,NNE,32,0.0,0.0,79,0.00,,,0.00,0,WeatherHawk,2013-04-09 09:00:00,
2013-04-09 02:05:00,32.5,27.6,30.30,NNE,32,0.0,0.0,82,0.00,,,0.00,0,WeatherHawk,2013-04-09 09:05:00,
2013-04-09 02:10:00,31.2,26.4,30.30,NNE,32,0.0,0.0,82,0.00,,,0.00,0,WeatherHawk,2013-04-09 09:10:00,
2013-04-09 02:15:00,32.4,28.7,30.31,NNE,32,0.0,0.0,86,0.00,,,0.00,1,WeatherHawk,2013-04-09 09:15:00,
2013-04-09 02:20:00,33.0,29.5,30.30,NNE,32,0.0,0.0,87,0.00,,,0.00,0,WeatherHawk,2013-04-09 09:20:00,
2013-04-09 02:26:00,32.3,27.7,30.30,NNW,344,0.0,0.0,83,0.00,,,0.00,0,WeatherHawk,2013-04-09 09:26:00,
2013-04-09 02:31:00,32.2,27.1,30.31,North,11,0.0,0.0,81,0.00,,,0.00,0,WeatherHawk,2013-04-09 09:31:00,
2013-04-09 02:36:00,32.2,27.7,30.30,North,11,0.0,0.0,83,0.00,,,0.00,0,WeatherHawk,2013-04-09 09:36:00,
2013-04-09 02:42:00,31.7,27.5,30.30,North,11,0.0,0.0,84,0.00,,,0.00,0,WeatherHawk,2013-04-09 09:42:00,
2013-04-09 02:47:00,32.0,28.3,30.30,North,11,0.0,0.0,86,0.00,,,0.00,0,WeatherHawk,2013-04-09 09:47:00,
2013-04-09 02:52:00,31.7,28.6,30.30,North,11,0.0,0.0,88,0.00,,,0.00,0,WeatherHawk,2013-04-09 09:52:00,
2013-04-09 02:58:00,31.3,28.5,30.31,North,11,0.0,0.0,89,0.00,,,0.00,0,WeatherHawk,2013-04-09 09:58:00,
2013-04-09 03:04:00,31.0,28.4,30.31,North,11,0.0,0.0,90,0.00,,,0.00,0,WeatherHawk,2013-04-09 10:04:00,
2013-04-09 03:10:00,29.9,27.6,30.31,North,11,0.0,0.0,91,0.00,,,0.00,0,WeatherHawk,2013-04-09 10:10:00,
2013-04-09 03:15:00,30.6,28.8,30.31,WSW,254,0.0,0.0,93,0.00,,,0.00,0,WeatherHawk,2013-04-09 10:15:00,
2013-04-09 03:20:00,31.2,28.8,30.32,SSE,166,0.0,0.0,91,0.00,,,0.00,0,WeatherHawk,2013-04-09 10:20:00,
2013-04-09 03:25:00,32.2,28.8,30.32,SSE,166,0.0,0.0,87,0.00,,,0.00,0,WeatherHawk,2013-04-09 10:25:00,
2013-04-09 03:30:00,31.5,27.2,30.31,SSE,166,0.0,0.0,84,0.00,,,0.00,0,WeatherHawk,2013-04-09 10:30:00,
2013-04-09 03:35:00,31.0,26.5,30.32,SW,221,0.0,0.0,83,0.00,,,0.00,0,WeatherHawk,2013-04-09 10:35:00,
2013-04-09 03:40:00,30.4,26.8,30.31,SW,221,0.0,0.0,86,0.00,,,0.00,0,WeatherHawk,2013-04-09 10:40:00,
2013-04-09 03:45:00,31.7,28.3,30.31,SW,221,0.0,0.0,87,0.00,,,0.00,0,WeatherHawk,2013-04-09 10:45:00,
2013-04-09 03:50:00,32.1,28.4,30.32,SE,127,0.0,0.0,86,0.00,,,0.00,0,WeatherHawk,2013-04-09 10:50:00,
2013-04-09 03:55:00,31.2,26.7,30.32,SE,127,0.0,0.0,83,0.00,,,0.00,0,WeatherHawk,2013-04-09 10:55:00,
2013-04-09 04:00:00,30.3,26.1,30.32,WSW,245,0.0,0.0,84,0.00,,,0.00,0,WeatherHawk,2013-04-09 11:00:00,
2013-04-09 04:06:00,30.3,27.2,30.32,WSW,245,0.0,0.0,88,0.00,,,0.00,0,WeatherHawk,2013-04-09 11:06:00,
2013-04-09 04:12:00,29.6,27.3,30.32,WSW,245,0.0,0.0,91,0.00,,,0.00,0,WeatherHawk,2013-04-09 11:12:00,
2013-04-09 04:17:00,29.2,27.5,30.32,WSW,245,0.0,0.0,93,0.00,,,0.00,0,WeatherHawk,2013-04-09 11:17:00,
2013-04-09 04:22:00,29.4,27.9,30.32,WSW,245,0.0,0.0,94,0.00,,,0.00,0,WeatherHawk,2013-04-09 11:22:00,
2013-04-09 04:28:00,30.6,29.6,30.32,WSW,245,0.0,0.0,96,0.00,,,0.00,0,WeatherHawk,2013-04-09 11:28:00,
2013-04-09 04:33:00,30.1,28.8,30.32,WNW,296,0.0,0.0,95,0.00,,,0.00,0,WeatherHawk,2013-04-09 11:33:00,
2013-04-09 04:38:00,28.9,27.4,30.33,NW,317,0.0,0.0,94,0.00,,,0.00,0,WeatherHawk,2013-04-09 11:38:00,
2013-04-09 04:43:00,29.2,27.9,30.33,WSW,247,0.0,0.0,95,0.00,,,0.00,0,WeatherHawk,2013-04-09 11:43:00,
2013-04-09 04:48:00,29.9,28.7,30.33,WSW,248,0.0,0.0,95,0.00,,,0.00,0,WeatherHawk,2013-04-09 11:48:00,
2013-04-09 04:53:00,28.4,27.4,30.34,WSW,247,0.0,0.0,96,0.00,,,0.00,0,WeatherHawk,2013-04-09 11:53:00,
2013-04-09 04:58:00,29.8,29.0,30.33,WSW,247,0.0,0.0,97,0.00,,,0.00,0,WeatherHawk,2013-04-09 11:58:00,
2013-04-09 05:03:00,30.2,29.4,30.34,SE,130,0.0,0.0,97,0.00,,,0.00,0,WeatherHawk,2013-04-09 12:03:00,
2013-04-09 05:08:00,30.8,29.5,30.34,SE,130,0.0,0.0,95,0.00,,,0.00,0,WeatherHawk,2013-04-09 12:08:00,
2013-04-09 05:13:00,29.5,27.8,30.33,SE,130,0.0,0.0,93,0.00,,,0.00,0,WeatherHawk,2013-04-09 12:13:00,
2013-04-09 05:18:00,30.0,28.0,30.34,WSW,245,0.0,0.0,92,0.00,,,0.00,0,WeatherHawk,2013-04-09 12:18:00,
2013-04-09 05:23:00,29.8,28.0,30.34,WSW,245,0.0,0.0,93,0.00,,,0.00,0,WeatherHawk,2013-04-09 12:23:00,
2013-04-09 05:28:00,27.1,25.4,30.35,WSW,245,0.0,0.0,93,0.00,,,0.00,0,WeatherHawk,2013-04-09 12:28:00,
2013-04-09 05:34:00,28.2,27.2,30.35,WSW,245,0.0,0.0,96,0.00,,,0.00,0,WeatherHawk,2013-04-09 12:34:00,
2013-04-09 05:39:00,29.2,28.7,30.35,WSW,245,0.0,0.0,98,0.00,,,0.00,0,WeatherHawk,2013-04-09 12:39:00,
2013-04-09 05:44:00,28.7,28.7,30.35,WSW,245,0.0,0.0,100,0.00,,,0.00,0,WeatherHawk,2013-04-09 12:44:00,
2013-04-09 05:50:00,29.0,29.0,30.35,SW,233,0.0,0.0,100,0.00,,,0.00,0,WeatherHawk,2013-04-09 12:50:00,
2013-04-09 05:55:00,29.1,29.1,30.35,WSW,237,0.0,0.0,100,0.00,,,0.00,1,WeatherHawk,2013-04-09 12:55:00,
2013-04-09 06:00:00,28.7,28.7,30.35,SW,220,0.0,0.0,100,0.00,,,0.00,0,WeatherHawk,2013-04-09 13:00:00,
2013-04-09 06:06:00,29.8,29.8,30.36,West,259,0.0,-999.0,100,0.00,,,0.00,0,WeatherHawk,2013-04-09 13:06:00,
2013-04-09 06:11:00,29.2,28.7,30.36,West,259,0.0,0.0,98,0.00,,,0.00,0,WeatherHawk,2013-04-09 13:11:00,
2013-04-09 06:16:00,29.0,28.5,30.35,West,259,0.0,-999.0,98,0.00,,,0.00,0,WeatherHawk,2013-04-09 13:16:00,
2013-04-09 06:21:00,27.9,26.9,30.35,West,259,0.0,0.0,96,0.00,,,0.00,0,WeatherHawk,2013-04-09 13:21:00,
2013-04-09 06:26:00,29.0,28.0,30.36,SSE,166,0.0,0.0,96,0.00,,,0.00,2,WeatherHawk,2013-04-09 13:26:00,
2013-04-09 06:32:00,29.7,28.2,30.36,SSE,166,0.0,0.0,94,0.00,,,0.00,4,WeatherHawk,2013-04-09 13:32:00,
2013-04-09 06:38:00,29.6,27.8,30.36,SSE,166,0.0,0.0,93,0.00,,,0.00,6,WeatherHawk,2013-04-09 13:38:00,
2013-04-09 06:43:00,29.3,27.5,30.36,SSE,166,0.0,0.0,93,0.00,,,0.00,8,WeatherHawk,2013-04-09 13:43:00,
2013-04-09 06:48:00,29.3,27.5,30.36,SSE,166,0.0,0.0,93,0.00,,,0.00,10,WeatherHawk,2013-04-09 13:48:00,
2013-04-09 06:53:00,29.3,28.3,30.37,NNE,14,0.0,0.0,96,0.00,,,0.00,13,WeatherHawk,2013-04-09 13:53:00,
2013-04-09 06:58:00,29.3,28.3,30.36,NNE,14,0.0,0.0,96,0.00,,,0.00,15,WeatherHawk,2013-04-09 13:58:00,
2013-04-09 07:04:00,28.7,27.7,30.37,NNE,14,0.0,0.0,96,0.00,,,0.00,20,WeatherHawk,2013-04-09 14:04:00,
2013-04-09 07:09:00,29.2,28.5,30.38,NNE,14,0.0,0.0,97,0.00,,,0.00,22,WeatherHawk,2013-04-09 14:09:00,
2013-04-09 07:14:00,29.2,28.4,30.37,NNE,14,0.0,0.0,97,0.00,,,0.00,22,WeatherHawk,2013-04-09 14:14:00,
2013-04-09 07:20:00,29.7,28.5,30.37,NNE,14,0.0,0.0,95,0.00,,,0.00,21,WeatherHawk,2013-04-09 14:20:00,
2013-04-09 07:25:00,30.0,27.7,30.37,NNE,14,0.0,0.0,91,0.00,,,0.00,22,WeatherHawk,2013-04-09 14:25:00,
2013-04-09 07:30:00,30.1,27.0,30.37,NNE,14,0.0,0.0,88,0.00,,,0.00,17,WeatherHawk,2013-04-09 14:30:00,
2013-04-09 07:35:00,30.1,26.4,30.37,NNE,14,0.0,0.0,86,0.00,,,0.00,22,WeatherHawk,2013-04-09 14:35:00,
2013-04-09 07:40:00,30.1,26.7,30.37,NNE,14,0.0,0.0,87,0.00,,,0.00,25,WeatherHawk,2013-04-09 14:40:00,
2013-04-09 07:45:00,30.4,27.5,30.37,NNE,14,0.0,0.0,89,0.00,,,0.00,27,WeatherHawk,2013-04-09 14:45:00,
2013-04-09 07:50:00,29.9,26.5,30.37,NNE,14,0.0,0.0,87,0.00,,,0.00,26,WeatherHawk,2013-04-09 14:50:00,
2013-04-09 07:55:00,30.2,26.2,30.38,NNE,14,0.0,0.0,85,0.00,,,0.00,29,WeatherHawk,2013-04-09 14:55:00,
2013-04-09 08:00:00,30.1,26.2,30.38,NNE,14,0.0,0.0,85,0.00,,,0.00,34,WeatherHawk,2013-04-09 15:00:00,
2013-04-09 08:06:00,34.6,30.6,30.38,NNE,14,0.0,-999.0,85,0.00,,,0.00,214,WeatherHawk,2013-04-09 15:06:00,
2013-04-09 08:11:00,34.6,25.8,30.38,SSE,166,3.0,0.0,70,0.00,,,0.00,220,WeatherHawk,2013-04-09 15:11:00,
2013-04-09 08:16:00,33.9,23.0,30.37,ESE,122,5.0,0.0,64,0.00,,,0.00,232,WeatherHawk,2013-04-09 15:16:00,
2013-04-09 08:22:00,39.7,28.2,30.37,SSE,158,0.0,0.0,63,0.00,,,0.00,249,WeatherHawk,2013-04-09 15:22:00,
2013-04-09 08:27:00,36.6,21.1,30.36,South,171,3.0,0.0,53,0.00,,,0.00,298,WeatherHawk,2013-04-09 15:27:00,
2013-04-09 08:32:00,38.1,22.1,30.36,SSE,162,2.0,0.0,52,0.00,,,0.00,295,WeatherHawk,2013-04-09 15:32:00,
2013-04-09 08:38:00,36.1,19.7,30.36,SSE,153,0.0,0.0,51,0.00,,,0.00,269,WeatherHawk,2013-04-09 15:38:00,
2013-04-09 08:43:00,35.6,18.3,30.36,NNW,328,0.0,0.0,49,0.00,,,0.00,316,WeatherHawk,2013-04-09 15:43:00,
2013-04-09 08:48:00,35.9,18.1,30.36,NNW,340,3.0,0.0,48,0.00,,,0.00,311,WeatherHawk,2013-04-09 15:48:00,
2013-04-09 08:53:00,35.9,19.6,30.36,NNE,25,0.0,0.0,51,0.00,,,0.00,344,WeatherHawk,2013-04-09 15:53:00,
2013-04-09 08:58:00,38.9,19.9,30.35,NNE,25,0.0,0.0,46,0.00,,,0.00,237,WeatherHawk,2013-04-09 15:58:00,
2013-04-09 09:04:00,38.0,18.6,30.34,SSE,168,5.0,0.0,45,0.00,,,0.00,223,WeatherHawk,2013-04-09 16:04:00,
2013-04-09 09:10:00,40.1,21.5,30.34,SSW,210,0.0,0.0,47,0.00,,,0.00,226,WeatherHawk,2013-04-09 16:10:00,
2013-04-09 09:15:00,37.7,17.3,30.34,WSW,252,2.0,0.0,43,0.00,,,0.00,304,WeatherHawk,2013-04-09 16:15:00,
2013-04-09 09:20:00,40.5,17.5,30.34,SE,142,3.0,0.0,39,0.00,,,0.00,481,WeatherHawk,2013-04-09 16:20:00,
2013-04-09 09:25:00,41.7,18.0,30.34,East,79,3.0,0.0,38,0.00,,,0.00,487,WeatherHawk,2013-04-09 16:25:00,
2013-04-09 09:30:00,42.6,18.2,30.34,SSE,154,0.0,0.0,37,0.00,,,0.00,388,WeatherHawk,2013-04-09 16:30:00,
2013-04-09 09:35:00,42.9,18.4,30.33,East,94,2.0,0.0,37,0.00,,,0.00,362,WeatherHawk,2013-04-09 16:35:00,
2013-04-09 09:40:00,48.4,22.0,30.34,South,187,2.0,0.0,35,0.00,,,0.00,557,WeatherHawk,2013-04-09 16:40:00,
2013-04-09 09:46:00,45.5,17.3,30.33,South,174,3.0,0.0,32,0.00,,,0.00,465,WeatherHawk,2013-04-09 16:46:00,
2013-04-09 09:51:00,47.8,18.7,30.32,SE,134,3.0,0.0,31,0.00,,,0.00,559,WeatherHawk,2013-04-09 16:51:00,
2013-04-09 09:56:00,44.2,13.2,30.32,SE,131,5.0,0.0,28,0.00,,,0.00,480,WeatherHawk,2013-04-09 16:56:00,
2013-04-09 10:02:00,44.0,14.6,30.32,SSE,153,6.0,0.0,30,0.00,,,0.00,355,WeatherHawk,2013-04-09 17:02:00,
2013-04-09 10:07:00,45.9,14.6,30.33,SSE,168,2.0,0.0,28,0.00,,,0.00,308,WeatherHawk,2013-04-09 17:07:00,
2013-04-09 10:12:00,43.5,11.8,30.33,South,182,9.0,0.0,27,0.00,,,0.00,296,WeatherHawk,2013-04-09 17:12:00,
2013-04-09 10:17:00,44.7,13.6,30.33,SSE,150,5.0,0.0,28,0.00,,,0.00,316,WeatherHawk,2013-04-09 17:17:00,
2013-04-09 10:22:00,48.5,16.9,30.33,SSE,152,0.0,0.0,28,0.00,,,0.00,476,WeatherHawk,2013-04-09 17:22:00,
2013-04-09 10:28:00,44.7,10.2,30.33,South,191,5.0,0.0,24,0.00,,,0.00,487,WeatherHawk,2013-04-09 17:28:00,
2013-04-09 10:33:00,49.5,15.2,30.33,SSW,207,0.0,0.0,25,0.00,,,0.00,403,WeatherHawk,2013-04-09 17:33:00,
2013-04-09 10:38:00,45.4,7.7,30.33,SSE,157,4.0,0.0,21,0.00,,,0.00,341,WeatherHawk,2013-04-09 17:38:00,
2013-04-09 10:43:00,47.6,11.6,30.33,ENE,58,0.0,0.0,23,0.00,,,0.00,432,WeatherHawk,2013-04-09 17:43:00,
2013-04-09 10:48:00,47.6,9.7,30.33,SSE,168,5.0,0.0,21,0.00,,,0.00,518,WeatherHawk,2013-04-09 17:48:00,
2013-04-09 10:54:00,46.5,2.8,30.32,SE,127,3.0,0.0,16,0.00,,,0.00,608,WeatherHawk,2013-04-09 17:54:00,
2013-04-09 10:59:00,50.8,4.8,30.32,NE,53,0.0,0.0,15,0.00,,,0.00,445,WeatherHawk,2013-04-09 17:59:00,
2013-04-09 11:04:00,47.8,5.1,30.32,East,86,3.0,0.0,17,0.00,,,0.00,515,WeatherHawk,2013-04-09 18:04:00,
2013-04-09 11:09:00,45.8,8.1,30.32,NW,306,6.0,0.0,21,0.00,,,0.00,473,WeatherHawk,2013-04-09 18:09:00,
2013-04-09 11:14:00,49.0,14.8,30.33,NE,38,4.0,0.0,25,0.00,,,0.00,746,WeatherHawk,2013-04-09 18:14:00,
2013-04-09 11:20:00,51.3,12.7,30.33,NNE,13,0.0,0.0,21,0.00,,,0.00,557,WeatherHawk,2013-04-09 18:20:00,
2013-04-09 11:25:00,49.2,8.7,30.32,North,10,3.0,0.0,19,0.00,,,0.00,644,WeatherHawk,2013-04-09 18:25:00,
2013-04-09 11:30:00,49.9,10.4,30.32,NE,38,9.0,0.0,20,0.00,,,0.00,601,WeatherHawk,2013-04-09 18:30:00,
2013-04-09 11:36:00,48.4,9.2,30.31,NE,34,3.0,-999.0,20,0.00,,,0.00,589,WeatherHawk,2013-04-09 18:36:00,
2013-04-09 11:41:00,51.5,11.8,30.32,NNW,344,6.0,0.0,20,0.00,,,0.00,511,WeatherHawk,2013-04-09 18:41:00,
2013-04-09 11:46:00,49.1,9.8,30.31,NW,309,2.0,0.0,20,0.00,,,0.00,576,WeatherHawk,2013-04-09 18:46:00,
2013-04-09 11:51:00,47.1,5.8,30.32,NW,306,6.0,0.0,18,0.00,,,0.00,518,WeatherHawk,2013-04-09 18:51:00,
2013-04-09 11:56:00,47.3,4.7,30.32,WNW,287,5.0,0.0,17,0.00,,,0.00,584,WeatherHawk,2013-04-09 18:56:00,
2013-04-09 12:01:00,49.0,7.4,30.31,NNW,348,5.0,0.0,18,0.00,,,0.00,635,WeatherHawk,2013-04-09 19:01:00,
2013-04-09 12:07:00,48.2,4.1,30.31,NNW,334,6.0,0.0,16,0.00,,,0.00,711,WeatherHawk,2013-04-09 19:07:00,
2013-04-09 12:12:00,49.1,3.5,30.31,NE,40,4.0,0.0,15,0.00,,,0.00,493,WeatherHawk,2013-04-09 19:12:00,
2013-04-09 12:17:00,51.8,7.0,30.30,NNE,20,6.0,0.0,16,0.00,,,0.00,638,WeatherHawk,2013-04-09 19:17:00,
2013-04-09 12:22:00,50.6,6.1,30.30,NE,41,5.0,0.0,16,0.00,,,0.00,679,WeatherHawk,2013-04-09 19:22:00,
2013-04-09 12:27:00,51.3,5.2,30.30,North,1,5.0,0.0,15,0.00,,,0.00,635,WeatherHawk,2013-04-09 19:27:00,
2013-04-09 12:32:00,51.0,5.0,30.30,NE,38,4.0,0.0,15,0.00,,,0.00,610,WeatherHawk,2013-04-09 19:32:00,
2013-04-09 12:38:00,50.1,-0.5,30.30,NW,314,5.0,0.0,12,0.00,,,0.00,611,WeatherHawk,2013-04-09 19:38:00,
2013-04-09 12:43:00,50.6,1.6,30.29,NNW,328,6.0,0.0,13,0.00,,,0.00,590,WeatherHawk,2013-04-09 19:43:00,
2013-04-09 12:48:00,51.9,5.7,30.30,NNE,20,6.0,0.0,15,0.00,,,0.00,597,WeatherHawk,2013-04-09 19:48:00,
2013-04-09 12:53:00,52.4,3.1,30.29,NE,39,4.0,0.0,13,0.00,,,0.00,554,WeatherHawk,2013-04-09 19:53:00,
2013-04-09 12:58:00,52.3,2.9,30.29,NNE,22,5.0,0.0,13,0.00,,,0.00,752,WeatherHawk,2013-04-09 19:58:00,
2013-04-09 13:03:00,52.5,-0.5,30.28,NE,44,6.0,0.0,11,0.00,,,0.00,708,WeatherHawk,2013-04-09 20:03:00,
2013-04-09 13:09:00,51.1,2.0,30.28,NE,34,7.0,0.0,13,0.00,,,0.00,650,WeatherHawk,2013-04-09 20:09:00,
2013-04-09 13:14:00,50.9,-1.7,30.29,NE,35,5.0,0.0,11,0.00,,,0.00,745,WeatherHawk,2013-04-09 20:14:00,
2013-04-09 13:20:00,54.2,2.7,30.28,NNW,348,6.0,0.0,12,0.00,,,0.00,522,WeatherHawk,2013-04-09 20:20:00,
2013-04-09 13:25:00,52.4,-7.1,30.29,NE,34,5.0,0.0,8,0.00,,,0.00,677,WeatherHawk,2013-04-09 20:25:00,
2013-04-09 13:30:00,53.4,-6.4,30.29,NNE,23,6.0,0.0,8,0.00,,,0.00,738,WeatherHawk,2013-04-09 20:30:00,
2013-04-09 13:35:00,56.8,-1.4,30.28,NW,324,8.0,0.0,9,0.00,,,0.00,689,WeatherHawk,2013-04-09 20:35:00,
2013-04-09 13:40:00,54.6,-5.5,30.28,North,350,5.0,0.0,8,0.00,,,0.00,597,WeatherHawk,2013-04-09 20:40:00,
2013-04-09 13:46:00,53.9,-6.0,30.28,NNW,328,7.0,0.0,8,0.00,,,0.00,520,WeatherHawk,2013-04-09 20:46:00,
2013-04-09 13:51:00,52.9,-9.5,30.29,NW,321,6.0,0.0,7,0.00,,,0.00,469,WeatherHawk,2013-04-09 20:51:00,
2013-04-09 13:56:00,55.1,-7.9,30.28,NW,324,3.0,-999.0,7,0.00,,,0.00,557,WeatherHawk,2013-04-09 20:56:00,
2013-04-09 14:01:00,54.4,-11.5,30.27,NE,35,1.0,-999.0,6,0.00,,,0.00,608,WeatherHawk,2013-04-09 21:01:00,
2013-04-09 14:07:00,56.0,-10.3,30.27,NW,318,4.0,0.0,6,0.00,,,0.00,658,WeatherHawk,2013-04-09 21:07:00,
2013-04-09 14:12:00,55.4,-10.7,30.27,NW,310,4.0,0.0,6,0.00,,,0.00,518,WeatherHawk,2013-04-09 21:12:00,
2013-04-09 14:17:00,56.7,-3.9,30.27,NW,324,8.0,0.0,8,0.00,,,0.00,602,WeatherHawk,2013-04-09 21:17:00,
2013-04-09 14:22:00,56.4,-1.7,30.27,NW,310,2.0,0.0,9,0.00,,,0.00,690,WeatherHawk,2013-04-09 21:22:00,
2013-04-09 14:27:00,54.5,-5.6,30.26,West,276,5.0,0.0,8,0.00,,,0.00,647,WeatherHawk,2013-04-09 21:27:00,
2013-04-09 14:33:00,55.6,-4.8,30.27,NNW,342,5.0,0.0,8,0.00,,,0.00,645,WeatherHawk,2013-04-09 21:33:00,
2013-04-09 14:38:00,57.8,-3.1,30.27,West,269,0.0,0.0,8,0.00,,,0.00,634,WeatherHawk,2013-04-09 21:38:00,
2013-04-09 14:43:00,54.4,-5.7,30.26,WNW,286,6.0,0.0,8,0.00,,,0.00,635,WeatherHawk,2013-04-09 21:43:00,
2013-04-09 14:49:00,55.7,-4.7,30.26,NE,38,6.0,0.0,8,0.00,,,0.00,655,WeatherHawk,2013-04-09 21:49:00,
2013-04-09 14:54:00,55.5,-4.8,30.26,West,279,4.0,0.0,8,0.00,,,0.00,637,WeatherHawk,2013-04-09 21:54:00,
2013-04-09 14:59:00,59.0,-5.0,30.26,NNW,338,6.0,0.0,7,0.00,,,0.00,514,WeatherHawk,2013-04-09 21:59:00,
2013-04-09 15:04:00,59.3,-4.8,30.26,NW,321,5.0,0.0,7,0.00,,,0.00,480,WeatherHawk,2013-04-09 22:04:00,
2013-04-09 15:09:00,56.3,-4.2,30.25,WNW,299,2.0,0.0,8,0.00,,,0.00,535,WeatherHawk,2013-04-09 22:09:00,
2013-04-09 15:15:00,55.7,-4.7,30.26,NNW,347,2.0,0.0,8,0.00,,,0.00,333,WeatherHawk,2013-04-09 22:15:00,
2013-04-09 15:21:00,56.0,-4.4,30.26,NNE,16,3.0,-999.0,8,0.00,,,0.00,261,WeatherHawk,2013-04-09 22:21:00,
2013-04-09 15:27:00,55.5,-7.6,30.25,NNW,328,3.0,0.0,7,0.00,,,0.00,305,WeatherHawk,2013-04-09 22:27:00,
2013-04-09 15:32:00,57.4,-9.3,30.26,NNE,16,4.0,0.0,6,0.00,,,0.00,392,WeatherHawk,2013-04-09 22:32:00,
2013-04-09 15:37:00,56.2,-7.0,30.25,NNE,12,4.0,0.0,7,0.00,,,0.00,247,WeatherHawk,2013-04-09 22:37:00,
2013-04-09 15:42:00,58.0,-8.9,30.25,NNW,344,2.0,0.0,6,0.00,,,0.00,471,WeatherHawk,2013-04-09 22:42:00,
2013-04-09 15:47:00,56.6,-6.8,30.25,SSE,162,3.0,0.0,7,0.00,,,0.00,396,WeatherHawk,2013-04-09 22:47:00,
2013-04-09 15:52:00,58.0,-5.7,30.24,NNE,32,0.0,0.0,7,0.00,,,0.00,558,WeatherHawk,2013-04-09 22:52:00,
2013-04-09 15:57:00,58.0,-5.7,30.24,WSW,249,0.0,0.0,7,0.00,,,0.00,400,WeatherHawk,2013-04-09 22:57:00,
2013-04-09 16:03:00,57.0,-6.5,30.24,North,7,4.0,0.0,7,0.00,,,0.00,232,WeatherHawk,2013-04-09 23:03:00,
2013-04-09 16:08:00,57.5,-6.1,30.24,North,0,0.0,0.0,7,0.00,,,0.00,334,WeatherHawk,2013-04-09 23:08:00,
2013-04-09 16:13:00,58.2,-5.6,30.24,ENE,78,4.0,0.0,7,0.00,,,0.00,345,WeatherHawk,2013-04-09 23:13:00,
2013-04-09 16:18:00,59.0,-5.0,30.24,ESE,121,0.0,0.0,7,0.00,,,0.00,520,WeatherHawk,2013-04-09 23:18:00,
2013-04-09 16:23:00,57.9,-5.8,30.24,North,3,8.0,0.0,7,0.00,,,0.00,575,WeatherHawk,2013-04-09 23:23:00,
2013-04-09 16:28:00,60.2,-4.1,30.24,East,79,6.0,0.0,7,0.00,,,0.00,479,WeatherHawk,2013-04-09 23:28:00,
2013-04-09 16:33:00,59.5,-7.8,30.24,NE,34,5.0,0.0,6,0.00,,,0.00,411,WeatherHawk,2013-04-09 23:33:00,
2013-04-09 16:38:00,58.8,-5.1,30.24,North,0,2.0,0.0,7,0.00,,,0.00,408,WeatherHawk,2013-04-09 23:38:00,
2013-04-09 16:43:00,59.4,-7.9,30.23,WNW,294,2.0,0.0,6,0.00,,,0.00,418,WeatherHawk,2013-04-09 23:43:00,
2013-04-09 16:48:00,60.9,-6.7,30.25,West,268,4.0,0.0,6,0.00,,,0.00,402,WeatherHawk,2013-04-09 23:48:00,
2013-04-09 16:53:00,58.1,-5.6,30.23,NE,40,4.0,0.0,7,0.00,,,0.00,371,WeatherHawk,2013-04-09 23:53:00,
2013-04-09 16:58:00,60.6,-1.0,30.23,NNE,21,5.0,0.0,8,0.00,,,0.00,386,WeatherHawk,2013-04-09 23:58:00,
2013-04-09 17:03:00,59.7,3.1,30.24,North,3,8.0,0.0,10,0.00,,,0.00,364,WeatherHawk,2013-04-10 00:03:00,
2013-04-09 17:09:00,58.9,-8.2,30.25,North,4,3.0,0.0,6,0.00,,,0.00,371,WeatherHawk,2013-04-10 00:09:00,
2013-04-09 17:14:00,58.2,-8.7,30.24,NNE,29,5.0,0.0,6,0.00,,,0.00,303,WeatherHawk,2013-04-10 00:14:00,
2013-04-09 17:19:00,59.5,0.6,30.24,North,7,5.0,0.0,9,0.00,,,0.00,298,WeatherHawk,2013-04-10 00:19:00,
2013-04-09 17:24:00,58.3,-8.7,30.24,NE,38,4.0,0.0,6,0.00,,,0.00,327,WeatherHawk,2013-04-10 00:24:00,
2013-04-09 17:29:00,57.5,1.4,30.24,NNE,22,5.0,0.0,10,0.00,,,0.00,139,WeatherHawk,2013-04-10 00:29:00,
2013-04-09 17:34:00,57.9,-0.5,30.24,NE,39,1.0,0.0,9,0.00,,,0.00,108,WeatherHawk,2013-04-10 00:34:00,
2013-04-09 17:39:00,57.4,1.3,30.25,North,3,4.0,0.0,10,0.00,,,0.00,100,WeatherHawk,2013-04-10 00:39:00,
2013-04-09 17:44:00,57.3,-6.3,30.24,ENE,58,3.0,0.0,7,0.00,,,0.00,103,WeatherHawk,2013-04-10 00:44:00,
2013-04-09 17:49:00,57.0,-6.4,30.25,NE,40,5.0,0.0,7,0.00,,,0.00,98,WeatherHawk,2013-04-10 00:49:00,
2013-04-09 17:54:00,57.2,1.1,30.26,NW,326,0.0,0.0,10,0.00,,,0.00,89,WeatherHawk,2013-04-10 00:54:00,
2013-04-09 17:59:00,57.0,-9.6,30.25,NNE,18,4.0,0.0,6,0.00,,,0.00,91,WeatherHawk,2013-04-10 00:59:00,
2013-04-09 18:05:00,57.2,-1.1,30.25,North,1,7.0,0.0,9,0.00,,,0.00,76,WeatherHawk,2013-04-10 01:05:00,
2013-04-09 18:10:00,57.0,-6.5,30.25,North,4,4.0,0.0,7,0.00,,,0.00,75,WeatherHawk,2013-04-10 01:10:00,
2013-04-09 18:15:00,56.9,-3.8,30.25,North,7,4.0,0.0,8,0.00,,,0.00,64,WeatherHawk,2013-04-10 01:15:00,
2013-04-09 18:21:00,56.6,-1.5,30.25,North,1,4.0,-999.0,9,0.00,,,0.00,62,WeatherHawk,2013-04-10 01:21:00,
2013-04-09 18:26:00,56.6,-6.7,30.24,NNE,26,2.0,0.0,7,0.00,,,0.00,65,WeatherHawk,2013-04-10 01:26:00,
2013-04-09 18:31:00,56.5,0.6,30.24,NNW,346,3.0,-999.0,10,0.00,,,0.00,66,WeatherHawk,2013-04-10 01:31:00,
2013-04-09 18:36:00,56.3,2.5,30.24,ESE,121,4.0,-999.0,11,0.00,,,0.00,60,WeatherHawk,2013-04-10 01:36:00,
2013-04-09 18:41:00,56.2,2.4,30.23,East,79,4.0,-999.0,11,0.00,,,0.00,56,WeatherHawk,2013-04-10 01:41:00,
2013-04-09 18:46:00,56.1,0.3,30.24,East,87,2.0,0.0,10,0.00,,,0.00,50,WeatherHawk,2013-04-10 01:46:00,
2013-04-09 18:51:00,56.1,0.3,30.24,ENE,74,2.0,0.0,10,0.00,,,0.00,46,WeatherHawk,2013-04-10 01:51:00,
2013-04-09 18:56:00,55.9,4.1,30.25,ENE,66,0.0,0.0,12,0.00,,,0.00,44,WeatherHawk,2013-04-10 01:56:00,
2013-04-09 19:02:00,56.1,-4.4,30.24,NNW,329,4.0,0.0,8,0.00,,,0.00,39,WeatherHawk,2013-04-10 02:02:00,
2013-04-09 19:07:00,54.8,10.9,30.25,NNW,348,7.0,0.0,17,0.00,,,0.00,34,WeatherHawk,2013-04-10 02:07:00,
2013-04-09 19:13:00,54.6,10.7,30.25,NNE,21,6.0,0.0,17,0.00,,,0.00,28,WeatherHawk,2013-04-10 02:13:00,
2013-04-09 19:19:00,54.2,11.6,30.25,North,9,5.0,0.0,18,0.00,,,0.00,20,WeatherHawk,2013-04-10 02:19:00,
2013-04-09 19:25:00,54.2,12.9,30.25,NNW,341,4.0,0.0,19,0.00,,,0.00,23,WeatherHawk,2013-04-10 02:25:00,
2013-04-09 19:31:00,54.3,13.0,30.25,ENE,59,1.0,0.0,19,0.00,,,0.00,14,WeatherHawk,2013-04-10 02:31:00,
2013-04-09 19:36:00,53.8,13.7,30.25,East,80,0.0,0.0,20,0.00,,,0.00,8,WeatherHawk,2013-04-10 02:36:00,
2013-04-09 19:41:00,53.5,14.6,30.25,East,101,4.0,0.0,21,0.00,,,0.00,0,WeatherHawk,2013-04-10 02:41:00,
2013-04-09 19:46:00,53.6,15.7,30.25,ESE,117,3.0,0.0,22,0.00,,,0.00,1,WeatherHawk,2013-04-10 02:46:00,
2013-04-09 19:51:00,53.3,17.4,30.25,East,93,4.0,0.0,24,0.00,,,0.00,0,WeatherHawk,2013-04-10 02:51:00,
2013-04-09 19:56:00,53.3,18.4,30.25,East,89,5.0,0.0,25,0.00,,,0.00,0,WeatherHawk,2013-04-10 02:56:00,
2013-04-09 20:02:00,53.1,18.2,30.25,ESE,107,3.0,0.0,25,0.00,,,0.00,0,WeatherHawk,2013-04-10 03:02:00,
2013-04-09 20:07:00,53.1,18.2,30.25,ENE,65,2.0,0.0,25,0.00,,,0.00,0,WeatherHawk,2013-04-10 03:07:00,
2013-04-09 20:12:00,52.8,18.9,30.25,East,85,0.0,0.0,26,0.00,,,0.00,0,WeatherHawk,2013-04-10 03:12:00,
2013-04-09 20:17:00,53.0,19.9,30.25,East,90,2.0,0.0,27,0.00,,,0.00,0,WeatherHawk,2013-04-10 03:17:00,
2013-04-09 20:22:00,52.6,18.7,30.26,East,88,0.0,0.0,26,0.00,,,0.00,0,WeatherHawk,2013-04-10 03:22:00,
2013-04-09 20:27:00,52.6,18.7,30.26,NE,48,0.0,0.0,26,0.00,,,0.00,0,WeatherHawk,2013-04-10 03:27:00,
2013-04-09 20:33:00,52.6,18.7,30.26,NNE,31,0.0,0.0,26,0.00,,,0.00,0,WeatherHawk,2013-04-10 03:33:00,
2013-04-09 20:38:00,52.4,19.4,30.27,NNE,24,0.0,0.0,27,0.00,,,0.00,0,WeatherHawk,2013-04-10 03:38:00,
2013-04-09 20:43:00,52.2,19.3,30.27,ENE,70,1.0,0.0,27,0.00,,,0.00,0,WeatherHawk,2013-04-10 03:43:00,
2013-04-09 20:48:00,52.3,19.3,30.26,NE,45,0.0,0.0,27,0.00,,,0.00,0,WeatherHawk,2013-04-10 03:48:00,
2013-04-09 20:54:00,51.5,19.5,30.27,ESE,102,0.0,0.0,28,0.00,,,0.00,0,WeatherHawk,2013-04-10 03:54:00,
2013-04-09 20:58:00,51.4,20.2,30.27,ESE,120,3.0,0.0,29,0.00,,,0.00,1,WeatherHawk,2013-04-10 03:58:00,
2013-04-09 21:00:00,51.0,20.7,30.27,SE,126,3.0,0.0,30,0.00,,,0.00,0,WeatherHawk,2013-04-10 04:00:00,
2013-04-09 21:01:00,50.9,19.8,30.27,SE,126,3.0,0.0,29,0.00,,,0.00,0,WeatherHawk,2013-04-10 04:01:00,
2013-04-09 21:03:00,51.7,20.5,30.27,ESE,123,2.0,0.0,29,0.00,,,0.00,0,WeatherHawk,2013-04-10 04:03:00,
2013-04-09 21:08:00,51.3,20.9,30.27,SE,130,2.0,0.0,30,0.00,,,0.00,0,WeatherHawk,2013-04-10 04:08:00,
2013-04-09 21:13:00,50.8,20.5,30.27,ESE,122,3.0,0.0,30,0.00,,,0.00,0,WeatherHawk,2013-04-10 04:13:00,
2013-04-09 21:18:00,50.7,21.2,30.28,ESE,122,3.0,0.0,31,0.00,,,0.00,0,WeatherHawk,2013-04-10 04:18:00,
2013-04-09 21:23:00,50.4,20.9,30.28,SSE,152,3.0,0.0,31,0.00,,,0.00,0,WeatherHawk,2013-04-10 04:23:00,
2013-04-09 21:28:00,51.9,21.5,30.28,ESE,121,3.0,0.0,30,0.00,,,0.00,1,WeatherHawk,2013-04-10 04:28:00,
2013-04-09 21:34:00,51.2,20.0,30.27,ESE,118,5.0,0.0,29,0.00,,,0.00,0,WeatherHawk,2013-04-10 04:34:00,
2013-04-09 21:39:00,51.3,20.9,30.27,SE,142,3.0,0.0,30,0.00,,,0.00,0,WeatherHawk,2013-04-10 04:39:00,
2013-04-09 21:44:00,51.3,21.7,30.28,SE,137,5.0,0.0,31,0.00,,,0.00,0,WeatherHawk,2013-04-10 04:44:00,
2013-04-09 21:49:00,50.8,20.5,30.28,SE,146,5.0,0.0,30,0.00,,,0.00,0,WeatherHawk,2013-04-10 04:49:00,
2013-04-09 21:54:00,50.4,20.2,30.28,SE,124,4.0,0.0,30,0.00,,,0.00,0,WeatherHawk,2013-04-10 04:54:00,
2013-04-09 21:59:00,50.6,21.1,30.28,SE,125,3.0,0.0,31,0.00,,,0.00,0,WeatherHawk,2013-04-10 04:59:00,
2013-04-09 22:04:00,51.2,22.3,30.27,SSE,152,6.0,0.0,32,0.00,,,0.00,0,WeatherHawk,2013-04-10 05:04:00,
2013-04-09 22:09:00,50.8,22.0,30.27,SSE,154,6.0,0.0,32,0.00,,,0.00,0,WeatherHawk,2013-04-10 05:09:00,
2013-04-09 22:14:00,51.0,22.2,30.26,SSE,159,6.0,0.0,32,0.00,,,0.00,0,WeatherHawk,2013-04-10 05:14:00,
2013-04-09 22:19:00,51.0,22.2,30.26,SSE,154,7.0,0.0,32,0.00,,,0.00,0,WeatherHawk,2013-04-10 05:19:00,
2013-04-09 22:24:00,50.4,23.1,30.25,SSE,147,6.0,0.0,34,0.00,,,0.00,0,WeatherHawk,2013-04-10 05:24:00,
2013-04-09 22:30:00,50.1,23.5,30.26,SSE,167,6.0,0.0,35,0.00,,,0.00,0,WeatherHawk,2013-04-10 05:30:00,
2013-04-09 22:35:00,50.1,23.5,30.26,South,179,5.0,0.0,35,0.00,,,0.00,0,WeatherHawk,2013-04-10 05:35:00,
2013-04-09 22:40:00,50.6,23.9,30.27,South,175,4.0,0.0,35,0.00,,,0.00,0,WeatherHawk,2013-04-10 05:40:00,
2013-04-09 22:45:00,50.6,24.7,30.26,South,178,5.0,0.0,36,0.00,,,0.00,0,WeatherHawk,2013-04-10 05:45:00,
2013-04-09 22:50:00,50.0,23.4,30.27,SSE,162,8.0,0.0,35,0.00,,,0.00,0,WeatherHawk,2013-04-10 05:50:00,
2013-04-09 22:55:00,49.6,23.0,30.27,SSE,160,7.0,0.0,35,0.00,,,0.00,0,WeatherHawk,2013-04-10 05:55:00,
2013-04-09 23:00:00,49.0,21.8,30.27,SSE,148,5.0,0.0,34,0.00,,,0.00,0,WeatherHawk,2013-04-10 06:00:00,
2013-04-09 23:05:00,49.2,22.1,30.27,ESE,113,5.0,0.0,34,0.00,,,0.00,0,WeatherHawk,2013-04-10 06:05:00,
2013-04-09 23:10:00,48.3,22.0,30.26,SE,145,3.0,0.0,35,0.00,,,0.00,0,WeatherHawk,2013-04-10 06:10:00,
2013-04-09 23:16:00,48.8,23.1,30.26,SSE,151,5.0,0.0,36,0.00,,,0.00,0,WeatherHawk,2013-04-10 06:16:00,
2013-04-09 23:21:00,48.5,22.1,30.26,SE,136,1.0,0.0,35,0.00,,,0.00,0,WeatherHawk,2013-04-10 06:21:00,
2013-04-09 23:27:00,48.5,22.8,30.26,SSE,166,4.0,0.0,36,0.00,,,0.00,0,WeatherHawk,2013-04-10 06:27:00,
2013-04-09 23:32:00,47.9,22.9,30.26,South,184,0.0,0.0,37,0.00,,,0.00,0,WeatherHawk,2013-04-10 06:32:00,
2013-04-09 23:38:00,47.1,23.5,30.26,SSW,205,0.0,0.0,39,0.00,,,0.00,1,WeatherHawk,2013-04-10 06:38:00,
2013-04-09 23:43:00,48.2,24.4,30.26,SSE,168,4.0,0.0,39,0.00,,,0.00,0,WeatherHawk,2013-04-10 06:43:00,
2013-04-09 23:48:00,48.1,24.3,30.26,SSE,150,4.0,0.0,39,0.00,,,0.00,0,WeatherHawk,2013-04-10 06:48:00,
2013-04-09 23:53:00,48.6,24.1,30.26,SSE,157,5.0,0.0,38,0.00,,,0.00,0,WeatherHawk,2013-04-10 06:53:00,
2013-04-09 23:58:00,48.1,24.4,30.25,SSE,149,6.0,0.0,39,0.00,,,0.00,1,WeatherHawk,2013-04-10 06:58:00,